This is the latest recevied weather packets stored in our database for station/object K2CCS. If no packets are shown the sender has not sent any weather packets the latest 10 day(s).
| Time | Temp. | Humidity | Pressure | Rain* | Wind** | Luminosity | Snow |
|---|---|---|---|---|---|---|---|
| 1778012699 | 22.22° C | 61% | 1008.2 hPa | 0 mm | - | 404 W/m² | - |
| 1778012395 | 21.67° C | 64% | 1008 hPa | 0 mm | - | 416 W/m² | - |
| 1778012092 | 21.11° C | 66% | 1007.9 hPa | 0 mm | - | 377 W/m² | - |
| 1778011790 | 20° C | 70% | 1007.8 hPa | 0 mm | - | 449 W/m² | - |
| 1778011488 | 19.44° C | 71% | 1007.3 hPa | 0 mm | - | 178 W/m² | - |
| 1778011183 | 18.89° C | 73% | 1007.9 hPa | 0 mm | - | 89 W/m² | - |
| 1778010880 | 19.44° C | 73% | 1009.1 hPa | 0 mm | - | 40 W/m² | - |
| 1778010577 | 19.44° C | 72% | 1009.4 hPa | 0 mm | - | 52 W/m² | - |
| 1778010275 | 20° C | 71% | 1009.6 hPa | 0 mm | - | 86 W/m² | - |
| 1778009975 | 20° C | 69% | 1009.5 hPa | 1.78 mm | - | 98 W/m² | - |
| 1778009673 | 20° C | 70% | 1009 hPa | 1.78 mm | - | 124 W/m² | - |
| 1778009370 | 20° C | 68% | 1009.3 hPa | 1.27 mm | - | 31 W/m² | - |
| 1778009068 | 19.44° C | 66% | 1007.9 hPa | 4.32 mm | - | 23 W/m² | - |
| 1778008765 | 18.89° C | 73% | 1008.3 hPa | 7.11 mm | - | 30 W/m² | - |
| 1778008464 | 21.67° C | 69% | 1008.6 hPa | 4.32 mm | - | 32 W/m² | - |
| 1778008161 | 26.11° C | 41% | 1007.6 hPa | 0 mm | - | 32 W/m² | - |
| 1778007856 | 26.11° C | 38% | 1007 hPa | 0 mm | - | 50 W/m² | - |
| 1778007551 | 26.67° C | 37% | 1006.6 hPa | 0 mm | - | 55 W/m² | - |
| 1778007249 | 26.67° C | 37% | 1006.6 hPa | 0 mm | - | 200 W/m² | - |
| 1778006945 | 26.11° C | 40% | 1006.5 hPa | 0 mm | - | 96 W/m² | - |
| 1778006642 | 26.11° C | 44% | 1006.8 hPa | 0 mm | - | 77 W/m² | - |
| 1778006339 | 26.67° C | 43% | 1006.7 hPa | 0 mm | - | 57 W/m² | - |
| 1778006035 | 26.11° C | 44% | 1006.6 hPa | 0 mm | - | 138 W/m² | - |
| 1778005732 | 26.67° C | 44% | 1006.5 hPa | 0 mm | - | 152 W/m² | - |
| 1778005429 | 26.11° C | 44% | 1006.6 hPa | 0 mm | - | 147 W/m² | - |
* Rain latest hour (hover to see other rain measurements)
** Current wind speed in m/s (hover to see current wind gust speed)